Rohrsburg, Pennsylvania
Current Conditions -  °F | °C
As of 7:15 PM on Wednesday 26 Nov 2014 (Local Time) from KHZL Reporting Station
Light Snow Light Snow  
Wind Chill: 24°   Ceiling: 500
Heat Index: 32°   Visibility: 4mi
Dew Point: 30°   Wind: 10mph
Humidity: 93%   Direction: 320°NW
Pressure: 29.92"   Gusts: 17mph
Location:  41.1114°N, 76.3684°W
Report Text: KHZL 270015Z AUTO 32009G15KT 4SM -SN OVC005 00/M01 A2992 RMK AO2
Loading
Personal Weather Stations






























Interactive Weather Map New forecast layout! Learn more

10-Day Weather Forecast

Advertisements
Track Severe Weather on mobile